Time;durP1;ratioP1;P1;durP2;ratioP2;P2;SDS_P1;SDS_P2;PMS_P1;PMS_P2;Temp;Humidity;BMP_temperature;BMP_pressure;BME280_temperature;BME280_humidity;BME280_pressure;Samples;Min_cycle;Max_cycle;Signal;HPM_P1;HPM_P2
2022/03/16 00:00:09;;;;;;;4.72;4.22;;;17.30;50.30;;;;;;5054777;28;20171;-69
2022/03/16 00:02:35;;;;;;;4.38;3.97;;;17.30;50.30;;;;;;5054466;28;20548;-69
2022/03/16 00:05:00;;;;;;;4.25;3.85;;;17.30;50.90;;;;;;5055145;28;20182;-68
2022/03/16 00:07:26;;;;;;;4.30;3.90;;;17.30;50.20;;;;;;5054971;28;20763;-68
2022/03/16 00:09:51;;;;;;;4.68;3.58;;;17.30;50.20;;;;;;5054479;28;20787;-68
2022/03/16 00:12:17;;;;;;;3.75;3.35;;;17.30;50.20;;;;;;5054653;28;20563;-72
2022/03/16 00:14:42;;;;;;;4.32;3.92;;;17.30;50.20;;;;;;5054940;28;20191;-70
2022/03/16 00:17:08;;;;;;;4.63;4.22;;;17.20;50.10;;;;;;5054318;28;20272;-71
2022/03/16 00:19:34;;;;;;;4.88;4.38;;;17.20;50.10;;;;;;5055061;28;20266;-70
2022/03/16 00:22:00;;;;;;;4.80;4.15;;;17.20;50.10;;;;;;5054733;28;20174;-71
2022/03/16 00:24:25;;;;;;;4.80;4.30;;;17.20;50.10;;;;;;5053761;28;20187;-70
2022/03/16 00:26:51;;;;;;;4.13;3.72;;;17.20;50.10;;;;;;5054672;28;20677;-71
2022/03/16 00:29:16;;;;;;;4.53;4.13;;;17.20;50.10;;;;;;5054215;28;20673;-70
2022/03/16 00:31:42;;;;;;;4.63;4.22;;;17.20;50.10;;;;;;5053866;28;20187;-69
2022/03/16 00:34:07;;;;;;;4.93;4.50;;;17.20;50.10;;;;;;5054230;28;20653;-68
2022/03/16 00:36:33;;;;;;;4.55;4.15;;;17.10;50.00;;;;;;5054777;28;20266;-68
2022/03/16 00:38:58;;;;;;;4.53;4.00;;;17.10;50.10;;;;;;5053972;28;20270;-69
2022/03/16 00:41:24;;;;;;;5.03;4.53;;;17.10;50.10;;;;;;5054133;28;20266;-69
2022/03/16 00:43:49;;;;;;;4.63;4.10;;;17.10;50.10;;;;;;5053828;28;20171;-68
2022/03/16 00:46:15;;;;;;;5.18;4.68;;;17.10;50.10;;;;;;5053881;28;20250;-70
2022/03/16 00:48:40;;;;;;;4.20;3.90;;;17.10;50.10;;;;;;5054374;28;20541;-69
2022/03/16 00:51:06;;;;;;;4.40;4.00;;;17.10;50.10;;;;;;5053442;28;20210;-70
2022/03/16 00:53:34;;;;;;;4.82;4.32;;;17.10;50.10;;;;;;5052893;28;20686;-69
2022/03/16 00:56:03;;;;;;;3.90;3.60;;;17.10;50.10;;;;;;5053963;28;20652;-69
2022/03/16 00:58:28;;;;;;;5.03;4.60;;;17.00;50.00;;;;;;5052229;28;20237;-69
2022/03/16 01:00:54;;;;;;;4.60;4.18;;;17.00;50.00;;;;;;5053919;28;20630;-69
2022/03/16 01:03:19;;;;;;;4.43;4.03;;;17.00;50.10;;;;;;5052562;28;20262;-69
2022/03/16 01:05:46;;;;;;;4.38;3.97;;;17.00;50.00;;;;;;5053254;28;20206;-68
2022/03/16 01:08:12;;;;;;;5.10;4.60;;;17.00;50.10;;;;;;5053577;28;20278;-69
2022/03/16 01:10:37;;;;;;;4.93;4.03;;;17.00;50.00;;;;;;5053866;28;20236;-69
2022/03/16 01:13:03;;;;;;;4.85;4.38;;;17.00;50.00;;;;;;5053131;28;20518;-70
2022/03/16 01:15:28;;;;;;;4.05;3.55;;;17.00;50.10;;;;;;5053630;28;20182;-72
2022/03/16 01:17:54;;;;;;;4.90;4.50;;;16.90;50.10;;;;;;5053916;28;20202;-70
2022/03/16 01:20:20;;;;;;;4.53;4.13;;;16.90;50.00;;;;;;5052782;28;20175;-70
2022/03/16 01:22:45;;;;;;;4.43;4.03;;;16.90;50.00;;;;;;5053745;28;20183;-70
2022/03/16 01:25:11;;;;;;;4.50;4.10;;;16.90;50.10;;;;;;5053266;28;20214;-71
2022/03/16 01:27:36;;;;;;;4.97;4.57;;;16.90;50.00;;;;;;5052802;28;20630;-70
2022/03/16 01:30:03;;;;;;;4.72;4.30;;;16.90;50.10;;;;;;5053399;28;20222;-70
2022/03/16 01:32:28;;;;;;;4.20;3.90;;;16.80;50.00;;;;;;5051763;28;20669;-70
2022/03/16 01:34:54;;;;;;;5.15;4.72;;;16.90;50.10;;;;;;5052828;28;20185;-68
2022/03/16 01:37:19;;;;;;;5.25;4.75;;;16.80;50.00;;;;;;5053150;28;20167;-68
2022/03/16 01:39:45;;;;;;;4.47;4.07;;;16.90;50.00;;;;;;5053417;28;20172;-69
2022/03/16 01:42:10;;;;;;;4.35;4.00;;;16.80;50.00;;;;;;5052455;28;20206;-69
2022/03/16 01:44:47;;;;;;;5.20;4.30;;;16.80;50.00;;;;;;5053194;28;20659;-70
2022/03/16 01:47:14;;;;;;;4.72;4.25;;;16.80;50.00;;;;;;5052366;28;20175;-70
2022/03/16 01:49:39;;;;;;;4.35;4.05;;;16.80;50.00;;;;;;5053050;28;20222;-70
2022/03/16 01:52:06;;;;;;;4.53;4.10;;;16.80;50.00;;;;;;5053046;28;20186;-69
2022/03/16 01:54:31;;;;;;;4.78;4.28;;;16.80;50.00;;;;;;5052174;28;20678;-69
2022/03/16 01:56:57;;;;;;;4.10;3.80;;;16.80;50.00;;;;;;5052792;28;20317;-70
2022/03/16 01:59:22;;;;;;;4.28;3.88;;;16.80;50.10;;;;;;5052547;28;20175;-69
2022/03/16 02:01:48;;;;;;;4.18;3.80;;;16.70;50.00;;;;;;5052528;28;20190;-70
2022/03/16 02:04:13;;;;;;;5.05;4.10;;;16.70;50.00;;;;;;5052611;28;20202;-68
2022/03/16 02:06:39;;;;;;;5.28;4.78;;;16.70;50.00;;;;;;5051543;28;20665;-69
2022/03/16 02:09:04;;;;;;;4.70;4.30;;;16.70;50.00;;;;;;5050834;28;20207;-69
2022/03/16 02:11:30;;;;;;;4.72;4.32;;;16.70;50.10;;;;;;5051167;28;20175;-70
2022/03/16 02:13:55;;;;;;;4.85;4.32;;;16.70;50.00;;;;;;5052651;28;20175;-71
2022/03/16 02:16:21;;;;;;;4.38;3.72;;;16.70;50.10;;;;;;5051584;28;20542;-71
2022/03/16 02:18:46;;;;;;;4.13;3.83;;;16.70;50.10;;;;;;5052672;28;20266;-71
2022/03/16 02:21:12;;;;;;;4.30;3.97;;;16.70;50.10;;;;;;5052295;28;20187;-71
2022/03/16 02:23:37;;;;;;;5.15;4.65;;;16.60;50.00;;;;;;5050712;28;20179;-70
2022/03/16 02:26:03;;;;;;;4.57;3.92;;;16.70;50.10;;;;;;5052439;28;20645;-70
2022/03/16 02:28:28;;;;;;;4.88;4.40;;;16.70;50.10;;;;;;5052354;28;20183;-71
2022/03/16 02:30:54;;;;;;;4.78;4.30;;;16.60;50.00;;;;;;5051809;28;20638;-69
2022/03/16 02:33:19;;;;;;;5.03;4.53;;;16.60;50.00;;;;;;5052201;28;20648;-69
2022/03/16 02:35:46;;;;;;;4.90;4.50;;;16.60;49.90;;;;;;5052647;28;20183;-68
2022/03/16 02:38:12;;;;;;;4.40;4.00;;;16.60;49.90;;;;;;5051503;28;20179;-68
2022/03/16 02:40:38;;;;;;;5.25;4.75;;;16.60;50.00;;;;;;5052339;28;20183;-69
2022/03/16 02:43:06;;;;;;;4.90;4.50;;;16.60;50.00;;;;;;5052318;28;20187;-70
2022/03/16 02:45:31;;;;;;;4.45;4.05;;;16.60;50.00;;;;;;5051557;28;20545;-70
2022/03/16 02:47:57;;;;;;;4.13;3.80;;;16.60;50.00;;;;;;5052510;28;20182;-70
2022/03/16 02:50:23;;;;;;;4.93;4.43;;;16.50;50.00;;;;;;5051991;28;20210;-70
2022/03/16 02:52:48;;;;;;;4.90;4.45;;;16.50;50.00;;;;;;5051594;28;20175;-69
2022/03/16 02:55:14;;;;;;;4.65;4.22;;;16.50;50.00;;;;;;5051947;28;20519;-70
2022/03/16 02:57:40;;;;;;;4.38;3.92;;;16.50;50.00;;;;;;5051359;28;20219;-69
2022/03/16 03:00:07;;;;;;;5.47;4.65;;;16.50;50.00;;;;;;5052184;28;20181;-69
2022/03/16 03:02:32;;;;;;;5.03;4.60;;;16.50;50.00;;;;;;5052398;28;20258;-69
2022/03/16 03:04:58;;;;;;;4.80;4.30;;;16.50;50.00;;;;;;5051487;28;20584;-69
2022/03/16 03:07:23;;;;;;;4.72;4.32;;;16.50;50.00;;;;;;5051824;28;20175;-69
2022/03/16 03:09:49;;;;;;;4.35;3.95;;;16.50;50.00;;;;;;5052051;28;20685;-69
2022/03/16 03:12:14;;;;;;;4.70;4.30;;;16.40;50.00;;;;;;5051035;28;20175;-72
2022/03/16 03:14:40;;;;;;;4.40;4.00;;;16.50;50.00;;;;;;5052305;28;20182;-71
2022/03/16 03:17:06;;;;;;;4.88;4.45;;;16.50;50.00;;;;;;5051786;28;20174;-71
2022/03/16 03:19:32;;;;;;;4.10;3.70;;;16.50;50.00;;;;;;5051370;28;20172;-70
2022/03/16 03:21:57;;;;;;;4.97;4.50;;;16.40;50.00;;;;;;5053073;28;20225;-70
2022/03/16 03:24:23;;;;;;;4.70;4.13;;;16.40;50.00;;;;;;5055472;28;20226;-70
2022/03/16 03:26:48;;;;;;;4.25;3.90;;;16.40;50.10;;;;;;5055047;28;20635;-72
2022/03/16 03:29:14;;;;;;;4.78;4.38;;;16.40;50.00;;;;;;5055609;28;20215;-71
2022/03/16 03:31:40;;;;;;;3.97;3.67;;;16.40;50.10;;;;;;5055877;28;20564;-71
2022/03/16 03:34:05;;;;;;;5.72;4.38;;;16.40;50.10;;;;;;5054735;28;20702;-69
2022/03/16 03:36:31;;;;;;;4.18;3.78;;;16.40;50.00;;;;;;5055635;28;20175;-69
2022/03/16 03:38:57;;;;;;;4.50;4.10;;;16.40;50.10;;;;;;5055555;28;20242;-69
2022/03/16 03:41:22;;;;;;;4.57;4.03;;;16.40;50.10;;;;;;5054456;28;20198;-69
2022/03/16 03:43:48;;;;;;;3.88;3.58;;;16.40;50.10;;;;;;5055677;28;20262;-69
2022/03/16 03:46:13;;;;;;;4.28;3.88;;;16.40;50.10;;;;;;5055294;28;20171;-69
2022/03/16 03:48:39;;;;;;;4.30;4.00;;;16.30;50.00;;;;;;5054738;28;20297;-70
2022/03/16 03:51:04;;;;;;;3.90;3.60;;;16.30;50.00;;;;;;5055613;28;20602;-70
2022/03/16 03:53:30;;;;;;;3.90;3.50;;;16.30;50.00;;;;;;5055197;28;20179;-69
2022/03/16 03:55:55;;;;;;;3.80;3.50;;;16.30;50.10;;;;;;5054310;28;20179;-69
2022/03/16 03:58:21;;;;;;;4.05;3.75;;;16.30;50.10;;;;;;5055160;28;20172;-68
2022/03/16 04:00:46;;;;;;;3.75;3.45;;;16.30;50.10;;;;;;5054677;28;20182;-69
2022/03/16 04:03:12;;;;;;;4.57;4.18;;;16.30;50.10;;;;;;5054890;28;20191;-68
2022/03/16 04:05:37;;;;;;;4.00;3.70;;;16.30;50.10;;;;;;5055045;28;20183;-69
2022/03/16 04:08:03;;;;;;;4.57;4.18;;;16.30;50.10;;;;;;5054397;28;20638;-68
2022/03/16 04:10:29;;;;;;;3.65;3.35;;;16.30;50.10;;;;;;5054463;28;20314;-69
2022/03/16 04:12:54;;;;;;;4.65;4.07;;;16.30;50.20;;;;;;5055209;28;20266;-72
2022/03/16 04:15:20;;;;;;;4.10;3.70;;;16.30;50.20;;;;;;5053755;28;20186;-70
2022/03/16 04:17:46;;;;;;;4.20;3.60;;;16.30;50.20;;;;;;5054902;28;20711;-70
2022/03/16 04:20:12;;;;;;;4.13;3.72;;;16.20;50.20;;;;;;5054424;28;20587;-69
2022/03/16 04:22:37;;;;;;;3.63;3.38;;;16.20;50.20;;;;;;5054105;28;20262;-71
2022/03/16 04:25:03;;;;;;;3.97;3.67;;;16.20;50.20;;;;;;5054720;28;20167;-72
2022/03/16 04:27:29;;;;;;;3.50;3.20;;;16.20;50.20;;;;;;5054542;28;20182;-71
2022/03/16 04:29:55;;;;;;;3.63;3.33;;;16.20;50.20;;;;;;5054011;28;20373;-71
2022/03/16 04:32:20;;;;;;;4.25;3.85;;;16.20;50.20;;;;;;5054484;28;20233;-70
2022/03/16 04:34:46;;;;;;;4.00;3.70;;;16.20;50.20;;;;;;5053431;28;20171;-68
2022/03/16 04:37:11;;;;;;;3.90;3.60;;;16.20;50.20;;;;;;5053521;28;20171;-70
2022/03/16 04:39:37;;;;;;;3.80;3.50;;;16.20;50.20;;;;;;5054480;28;20710;-68
2022/03/16 04:42:02;;;;;;;3.80;3.50;;;16.20;50.20;;;;;;5054635;28;20541;-70
2022/03/16 04:44:28;;;;;;;3.47;3.28;;;16.10;50.20;;;;;;5053570;28;20531;-70
2022/03/16 04:46:53;;;;;;;3.67;3.33;;;16.20;50.20;;;;;;5053340;28;20534;-69
2022/03/16 04:49:19;;;;;;;3.90;3.50;;;16.20;50.30;;;;;;5053799;28;20210;-70
2022/03/16 04:51:44;;;;;;;3.80;3.47;;;16.10;50.30;;;;;;5053659;28;20203;-70
2022/03/16 04:54:10;;;;;;;4.18;3.78;;;16.10;50.30;;;;;;5053740;28;20232;-69
2022/03/16 04:56:36;;;;;;;3.88;3.58;;;16.10;50.30;;;;;;5053906;28;20655;-69
2022/03/16 04:59:02;;;;;;;3.67;3.38;;;16.10;50.30;;;;;;5053510;28;20229;-69
2022/03/16 05:01:28;;;;;;;3.05;2.75;;;16.10;50.30;;;;;;5053648;28;20566;-69
2022/03/16 05:03:53;;;;;;;4.30;3.90;;;16.10;50.30;;;;;;5054103;28;20179;-68
2022/03/16 05:06:19;;;;;;;3.33;3.03;;;16.10;50.30;;;;;;5052986;28;20176;-69
2022/03/16 05:08:47;;;;;;;3.22;3.03;;;16.10;50.30;;;;;;5053720;28;20207;-69
2022/03/16 05:11:13;;;;;;;3.70;3.40;;;16.10;50.30;;;;;;5053103;28;20262;-70
2022/03/16 05:13:38;;;;;;;3.25;2.95;;;16.10;50.30;;;;;;5053745;28;20194;-71
2022/03/16 05:16:06;;;;;;;3.70;3.40;;;16.10;50.30;;;;;;5053668;28;20167;-70
2022/03/16 05:18:31;;;;;;;3.55;3.25;;;16.00;50.30;;;;;;5053100;28;20642;-70
2022/03/16 05:20:57;;;;;;;3.47;3.28;;;16.10;50.30;;;;;;5053653;28;20182;-71
2022/03/16 05:23:22;;;;;;;3.30;3.05;;;16.00;50.30;;;;;;5053434;28;20622;-70
2022/03/16 05:25:48;;;;;;;3.17;2.97;;;16.00;50.30;;;;;;5053054;28;20179;-71
2022/03/16 05:28:13;;;;;;;3.45;3.15;;;16.00;50.40;;;;;;5053325;28;20171;-70
2022/03/16 05:30:39;;;;;;;3.45;3.15;;;16.00;50.40;;;;;;5053558;28;20207;-70
2022/03/16 05:33:04;;;;;;;3.60;3.30;;;16.00;50.40;;;;;;5052737;28;20198;-69
2022/03/16 05:35:30;;;;;;;3.80;3.35;;;16.00;50.40;;;;;;5053040;28;20652;-68
2022/03/16 05:37:55;;;;;;;3.33;3.03;;;16.00;50.40;;;;;;5053282;28;20186;-69
2022/03/16 05:40:21;;;;;;;3.65;3.35;;;15.90;50.30;;;;;;5052414;28;20175;-69
2022/03/16 05:42:46;;;;;;;3.80;3.50;;;16.00;50.40;;;;;;5053069;28;20633;-69
2022/03/16 05:45:12;;;;;;;3.97;3.58;;;16.00;50.40;;;;;;5052642;28;20186;-71
2022/03/16 05:47:37;;;;;;;3.55;3.22;;;16.00;50.40;;;;;;5052438;28;20175;-70
2022/03/16 05:50:03;;;;;;;3.72;3.42;;;15.90;50.40;;;;;;5053012;28;20207;-70
2022/03/16 05:52:31;;;;;;;3.70;3.40;;;16.00;50.40;;;;;;5052625;28;20171;-70
2022/03/16 05:54:57;;;;;;;3.60;3.30;;;15.90;50.40;;;;;;5052235;28;20637;-70
2022/03/16 05:57:22;;;;;;;4.10;3.67;;;15.90;50.40;;;;;;5052561;28;20230;-70
2022/03/16 05:59:48;;;;;;;3.63;3.33;;;15.90;50.40;;;;;;5052999;28;20182;-69
2022/03/16 06:02:14;;;;;;;4.43;4.03;;;15.90;50.50;;;;;;5051935;28;20596;-69
2022/03/16 06:04:40;;;;;;;3.70;3.30;;;16.00;50.30;;;;;;5052939;28;20641;-69
2022/03/16 06:07:05;;;;;;;3.70;3.40;;;16.00;50.40;;;;;;5052526;28;20551;-69
2022/03/16 06:09:31;;;;;;;4.25;3.78;;;16.00;50.40;;;;;;5052061;28;20228;-70
2022/03/16 06:11:57;;;;;;;5.75;3.85;;;16.00;50.20;;;;;;5052924;28;20174;-71
2022/03/16 06:14:23;;;;;;;4.65;4.25;;;16.00;50.00;;;;;;5052195;28;20225;-71
2022/03/16 06:16:48;;;;;;;3.90;3.50;;;16.00;50.00;;;;;;5052471;28;20175;-72
2022/03/16 06:19:14;;;;;;;4.22;3.83;;;16.00;50.00;;;;;;5052270;28;20221;-70
2022/03/16 06:21:39;;;;;;;4.60;4.20;;;16.00;50.10;;;;;;5051828;28;20175;-71
2022/03/16 06:24:05;;;;;;;4.68;4.28;;;16.00;50.10;;;;;;5052814;28;20198;-70
2022/03/16 06:26:31;;;;;;;4.07;3.78;;;16.00;50.00;;;;;;5052481;28;20701;-71
2022/03/16 06:28:56;;;;;;;4.72;4.22;;;16.00;50.10;;;;;;5051936;28;20306;-71
2022/03/16 06:31:22;;;;;;;3.97;3.67;;;16.00;50.20;;;;;;5052295;28;20257;-70
2022/03/16 06:33:48;;;;;;;4.30;3.38;;;16.00;50.20;;;;;;5052463;28;20266;-68
2022/03/16 06:36:13;;;;;;;5.00;3.83;;;16.00;50.30;;;;;;5051466;28;20171;-68
2022/03/16 06:38:39;;;;;;;4.20;3.80;;;16.00;50.40;;;;;;5052698;28;20720;-69
2022/03/16 06:41:05;;;;;;;3.78;3.47;;;16.00;50.40;;;;;;5052570;28;20190;-69
2022/03/16 06:43:30;;;;;;;4.47;4.07;;;16.00;50.40;;;;;;5051550;28;20649;-69
2022/03/16 06:45:56;;;;;;;3.88;3.60;;;15.90;50.30;;;;;;5052467;28;20167;-70
2022/03/16 06:48:23;;;;;;;4.03;3.72;;;16.00;50.40;;;;;;5051954;28;20171;-70
2022/03/16 06:50:49;;;;;;;4.00;3.63;;;16.00;50.40;;;;;;5051524;28;20198;-70
2022/03/16 06:53:15;;;;;;;3.92;3.63;;;16.00;50.40;;;;;;5052179;28;20536;-69
2022/03/16 06:55:40;;;;;;;4.40;4.00;;;16.00;50.40;;;;;;5052209;28;20178;-70
2022/03/16 06:58:06;;;;;;;3.80;3.50;;;16.00;50.40;;;;;;5054427;28;20269;-70
2022/03/16 07:00:31;;;;;;;3.83;3.53;;;16.00;50.40;;;;;;5056328;28;20179;-70
2022/03/16 07:03:01;;;;;;;4.18;3.78;;;16.00;50.30;;;;;;5056395;28;20171;-69
2022/03/16 07:05:29;;;;;;;3.80;3.50;;;16.10;50.20;;;;;;5055167;28;20202;-69
2022/03/16 07:07:56;;;;;;;3.72;3.42;;;16.30;50.20;;;;;;5056527;28;20182;-68
2022/03/16 07:10:21;;;;;;;3.70;3.40;;;16.40;50.10;;;;;;5055971;28;20206;-70
2022/03/16 07:12:47;;;;;;;4.05;3.75;;;16.50;49.80;;;;;;5055465;28;20179;-70
2022/03/16 07:15:12;;;;;;;3.55;3.25;;;16.60;49.70;;;;;;5055901;28;20724;-71
2022/03/16 07:17:38;;;;;;;3.75;3.45;;;16.60;49.60;;;;;;5055944;28;20187;-71
2022/03/16 07:20:06;;;;;;;3.60;3.30;;;16.70;49.60;;;;;;5055102;28;20198;-70
2022/03/16 07:22:31;;;;;;;3.58;3.28;;;16.80;49.60;;;;;;5056138;28;20179;-71
2022/03/16 07:24:57;;;;;;;4.00;3.55;;;16.90;49.50;;;;;;5055241;28;20178;-71
2022/03/16 07:27:23;;;;;;;4.10;3.42;;;17.00;49.40;;;;;;5055852;28;20253;-71
2022/03/16 07:29:49;;;;;;;3.30;3.00;;;17.20;49.20;;;;;;5055796;28;20682;-71
2022/03/16 07:32:14;;;;;;;3.38;3.08;;;17.50;48.80;;;;;;5054604;28;20210;-70
2022/03/16 07:34:39;;;;;;;2.95;2.75;;;17.80;48.30;;;;;;5055683;28;20183;-68
2022/03/16 07:37:05;;;;;;;2.90;2.70;;;18.00;47.90;;;;;;5055642;28;20646;-68
2022/03/16 07:39:30;;;;;;;2.70;2.50;;;18.20;47.70;;;;;;5054729;28;20230;-68
2022/03/16 07:41:56;;;;;;;3.20;2.90;;;18.50;47.30;;;;;;5055765;28;20187;-69
2022/03/16 07:44:21;;;;;;;3.53;3.05;;;18.70;47.00;;;;;;5055281;28;20175;-68
2022/03/16 07:46:47;;;;;;;3.38;3.00;;;18.80;46.70;;;;;;5054716;28;20183;-69
2022/03/16 07:49:13;;;;;;;2.33;2.13;;;19.00;46.50;;;;;;5054900;28;20696;-69
2022/03/16 07:51:38;;;;;;;3.70;3.33;;;19.20;46.30;;;;;;5055527;28;20183;-68
2022/03/16 07:54:03;;;;;;;4.70;3.85;;;19.30;46.20;;;;;;5054369;28;20179;-69
2022/03/16 07:56:29;;;;;;;4.43;3.40;;;19.30;46.20;;;;;;5054946;28;20693;-74
2022/03/16 07:58:56;;;;;;;4.35;3.47;;;19.20;46.40;;;;;;5055092;28;20199;-73
2022/03/16 08:01:22;;;;;;;4.85;3.50;;;19.30;46.60;;;;;;5054153;28;20182;-72
2022/03/16 08:03:48;;;;;;;3.90;3.15;;;19.20;46.80;;;;;;5055096;28;20179;-73
2022/03/16 08:06:13;;;;;;;3.80;3.08;;;19.10;47.00;;;;;;5055062;28;20178;-72
2022/03/16 08:08:39;;;;;;;6.07;3.22;;;19.00;47.20;;;;;;5054184;28;20183;-73
2022/03/16 08:11:06;;;;;;;4.50;3.10;;;19.00;47.40;;;;;;5055232;28;20183;-75
2022/03/16 08:13:32;;;;;;;3.05;2.80;;;19.10;47.50;;;;;;5055014;28;20626;-74
2022/03/16 08:15:57;;;;;;;4.15;3.30;;;19.10;47.40;;;;;;5054640;28;20183;-75
2022/03/16 08:18:23;;;;;;;3.40;3.10;;;19.20;47.40;;;;;;5054423;28;20168;-74
2022/03/16 08:20:48;;;;;;;3.33;2.92;;;19.20;47.30;;;;;;5054654;28;20182;-74
2022/03/16 08:23:14;;;;;;;3.00;2.67;;;19.20;47.40;;;;;;5053703;28;20171;-73
2022/03/16 08:25:40;;;;;;;3.08;2.83;;;19.10;47.60;;;;;;5055114;28;20707;-70
2022/03/16 08:28:06;;;;;;;3.35;3.05;;;19.00;47.70;;;;;;5053749;28;20646;-74
2022/03/16 08:30:34;;;;;;;3.97;2.95;;;18.90;48.00;;;;;;5054167;28;20225;-72
2022/03/16 08:32:59;;;;;;;2.90;2.67;;;18.80;48.10;;;;;;5054215;28;20171;-73
2022/03/16 08:35:31;;;;;;;3.92;3.17;;;18.70;48.30;;;;;;5053603;28;20325;-67
2022/03/16 08:37:56;;;;;;;3.85;3.42;;;18.70;48.40;;;;;;5054063;28;20626;-66
2022/03/16 08:40:22;;;;;;;6.85;4.40;;;18.60;48.30;;;;;;5054104;28;20181;-68
2022/03/16 08:42:49;;;;;;;6.40;4.90;;;18.50;48.20;;;;;;5053876;28;20175;-68
2022/03/16 08:45:14;;;;;;;6.53;4.85;;;18.50;48.20;;;;;;5054166;28;20182;-71
2022/03/16 08:47:40;;;;;;;5.18;4.68;;;18.50;48.40;;;;;;5054321;28;20183;-70
2022/03/16 08:50:06;;;;;;;10.50;4.35;;;18.50;48.20;;;;;;5053441;28;20666;-69
2022/03/16 08:52:32;;;;;;;4.32;3.85;;;18.50;48.20;;;;;;5054435;28;20182;-70
2022/03/16 08:54:57;;;;;;;4.85;4.22;;;18.50;48.30;;;;;;5054368;28;20183;-69
2022/03/16 08:57:23;;;;;;;4.57;4.18;;;18.50;48.50;;;;;;5052959;28;20243;-69
2022/03/16 08:59:49;;;;;;;5.57;4.22;;;18.50;48.40;;;;;;5054024;28;20187;-69
2022/03/16 09:02:14;;;;;;;4.97;4.45;;;18.40;48.40;;;;;;5053843;28;20171;-69
2022/03/16 09:04:40;;;;;;;7.32;3.78;;;18.50;48.40;;;;;;5053163;28;20316;-69
2022/03/16 09:07:05;;;;;;;5.28;3.90;;;18.50;48.40;;;;;;5053986;28;20204;-69
2022/03/16 09:09:31;;;;;;;4.25;3.85;;;18.50;48.40;;;;;;5053806;28;20206;-69
2022/03/16 09:11:56;;;;;;;5.50;3.63;;;18.50;48.30;;;;;;5053324;28;20175;-70
2022/03/16 09:14:22;;;;;;;4.80;4.07;;;18.50;48.20;;;;;;5053478;28;20198;-70
2022/03/16 09:16:47;;;;;;;5.30;4.00;;;18.50;48.20;;;;;;5053732;28;20540;-72
2022/03/16 09:19:20;;;;;;;4.93;3.50;;;18.50;48.20;;;;;;5052497;28;20172;-68
2022/03/16 09:21:47;;;;;;;5.00;3.53;;;18.50;48.00;;;;;;5053221;28;20225;-69
2022/03/16 09:24:13;;;;;;;4.65;3.80;;;18.50;48.00;;;;;;5053180;28;20218;-68
2022/03/16 09:26:39;;;;;;;3.65;3.28;;;18.60;48.10;;;;;;5052939;28;20219;-69
2022/03/16 09:29:07;;;;;;;4.32;3.60;;;18.60;48.00;;;;;;5053403;28;20238;-72
2022/03/16 09:31:34;;;;;;;3.42;3.13;;;18.60;47.90;;;;;;5053060;28;20179;-67
2022/03/16 09:34:00;;;;;;;3.58;3.28;;;18.60;47.80;;;;;;5053629;28;20195;-67
2022/03/16 09:36:25;;;;;;;3.38;2.70;;;18.60;47.80;;;;;;5053321;28;20249;-67
2022/03/16 09:38:51;;;;;;;4.80;3.80;;;18.60;47.70;;;;;;5052597;28;20198;-67
2022/03/16 09:41:17;;;;;;;3.83;3.00;;;18.60;47.60;;;;;;5052984;28;20914;-68
2022/03/16 09:43:42;;;;;;;4.43;3.20;;;18.60;47.60;;;;;;5053227;28;20179;-68
2022/03/16 09:46:12;;;;;;;3.08;2.78;;;18.60;47.70;;;;;;5052431;28;20175;-70
2022/03/16 09:48:38;;;;;;;3.97;2.90;;;18.70;47.80;;;;;;5053147;28;20186;-70
2022/03/16 09:51:04;;;;;;;2.92;2.60;;;18.70;47.70;;;;;;5053410;28;20187;-69
2022/03/16 09:53:30;;;;;;;4.00;2.70;;;18.70;47.70;;;;;;5051755;28;20182;-71
2022/03/16 09:55:55;;;;;;;3.33;3.00;;;18.80;47.40;;;;;;5034613;28;20244;-68
2022/03/16 09:58:21;;;;;;;4.55;2.83;;;18.80;47.50;;;;;;5052235;28;20183;-67
2022/03/16 10:00:47;;;;;;;3.55;2.13;;;18.70;47.60;;;;;;5051991;28;20171;-69
2022/03/16 10:03:15;;;;;;;3.33;2.78;;;18.70;47.70;;;;;;5052158;28;20630;-65
2022/03/16 10:05:40;;;;;;;2.70;2.50;;;18.70;47.80;;;;;;5051942;28;20179;-69
2022/03/16 10:08:08;;;;;;;3.15;2.47;;;18.70;47.70;;;;;;5044868;28;20657;-68
2022/03/16 10:13:23;;;;;;;7.88;2.80;;;18.80;47.90;;;;;;5052524;28;20198;-70
2022/03/16 10:15:49;;;;;;;3.55;2.40;;;18.80;47.90;;;;;;5040915;28;20255;-69
2022/03/16 10:18:21;;;;;;;5.57;2.10;;;18.80;47.90;;;;;;5032488;28;20184;-69
2022/03/16 10:20:47;;;;;;;2.67;2.47;;;18.80;47.90;;;;;;5041216;28;20229;-68
2022/03/16 10:23:14;;;;;;;4.03;2.53;;;18.90;48.00;;;;;;5051939;28;20171;-69
2022/03/16 10:25:51;;;;;;;3.08;2.20;;;18.80;48.00;;;;;;5052993;28;20171;-70
2022/03/16 10:28:36;;;;;;;5.47;2.55;;;18.80;48.00;;;;;;5051696;28;20170;-69
2022/03/16 10:31:08;;;;;;;3.53;2.33;;;18.80;47.90;;;;;;5052576;28;20187;-69
2022/03/16 10:33:54;;;;;;;3.05;1.85;;;18.90;47.80;;;;;;5052349;28;20175;-68
2022/03/16 10:36:21;;;;;;;2.00;1.85;;;18.90;47.80;;;;;;5050898;28;20183;-68
2022/03/16 10:39:02;;;;;;;3.05;2.25;;;18.90;47.90;;;;;;5052676;28;20583;-68
2022/03/16 10:47:11;;;;;;;5.38;2.40;;;18.80;48.70;;;;;;5052554;28;20170;-65
2022/03/16 10:49:38;;;;;;;2.85;2.30;;;18.80;48.00;;;;;;5051559;28;20299;-65
2022/03/16 10:52:06;;;;;;;4.25;2.75;;;18.80;47.60;;;;;;5052679;28;20611;-65
2022/03/16 10:54:33;;;;;;;3.28;2.63;;;18.80;47.60;;;;;;5052139;28;20191;-68
2022/03/16 10:56:59;;;;;;;2.95;2.40;;;18.80;47.70;;;;;;5051532;28;20728;-67
2022/03/16 10:59:26;;;;;;;2.83;2.60;;;18.70;47.60;;;;;;5051905;28;20210;-66
2022/03/16 11:01:52;;;;;;;3.30;2.45;;;18.70;47.70;;;;;;5051750;28;20229;-75
2022/03/16 11:04:24;;;;;;;3.65;2.42;;;18.70;47.70;;;;;;5032992;28;20179;-73
2022/03/16 11:06:50;;;;;;;3.03;1.90;;;18.70;47.90;;;;;;5050706;28;20156;-72
2022/03/16 11:09:17;;;;;;;4.15;2.42;;;18.80;47.90;;;;;;5050763;28;20211;-72
2022/03/16 11:14:27;;;;;;;2.58;2.28;;;18.90;48.00;;;;;;5051654;28;20695;-74
2022/03/16 11:16:52;;;;;;;3.10;2.10;;;18.90;48.10;;;;;;5050394;28;20179;-74
2022/03/16 11:19:22;;;;;;;2.38;1.75;;;18.90;48.10;;;;;;5050858;28;20234;-73
2022/03/16 11:22:15;;;;;;;2.83;1.58;;;18.90;48.10;;;;;;5050760;28;20242;-73
2022/03/16 11:24:47;;;;;;;3.13;2.17;;;18.90;48.20;;;;;;5050232;28;20287;-73
2022/03/16 11:27:34;;;;;;;2.78;1.58;;;18.90;48.30;;;;;;5050665;28;20183;-69
2022/03/16 11:30:36;;;;;;;2.70;2.28;;;18.90;48.30;;;;;;5051928;28;20203;-67
2022/03/16 11:33:10;;;;;;;2.58;2.22;;;18.90;48.20;;;;;;5051273;28;20179;-66
2022/03/16 11:35:37;;;;;;;2.47;1.95;;;18.80;48.10;;;;;;5052061;28;20179;-66
2022/03/16 11:38:09;;;;;;;2.40;1.90;;;18.90;48.10;;;;;;5050948;28;20272;-66
2022/03/16 11:40:35;;;;;;;3.85;2.35;;;18.80;48.00;;;;;;5052221;28;20189;-65
2022/03/16 11:43:04;;;;;;;4.68;2.10;;;18.80;48.00;;;;;;5052955;28;20258;-67
2022/03/16 11:45:37;;;;;;;9.65;6.43;;;18.80;48.10;;;;;;5054690;28;20183;-67
2022/03/16 11:48:31;;;;;;;18.38;12.18;;;18.80;48.10;;;;;;5055670;28;20175;-66
2022/03/16 11:51:06;;;;;;;18.50;11.57;;;18.90;48.20;;;;;;5055327;28;20701;-66
2022/03/16 11:56:23;;;;;;;15.52;12.43;;;18.80;48.30;;;;;;5050001;28;20219;-66
2022/03/16 11:58:55;;;;;;;22.73;14.45;;;18.80;49.00;;;;;;5055288;28;20182;-66
2022/03/16 12:01:33;;;;;;;18.38;11.52;;;18.80;48.40;;;;;;5054460;28;20175;-66
2022/03/16 12:04:15;;;;;;;19.15;12.93;;;18.80;48.30;;;;;;5055411;28;20199;-65
2022/03/16 12:06:53;;;;;;;18.23;12.63;;;18.90;48.30;;;;;;5054660;28;20166;-61
2022/03/16 12:09:34;;;;;;;19.17;13.13;;;18.80;48.30;;;;;;5054683;28;20218;-68
2022/03/16 12:14:59;;;;;;;16.58;12.93;;;18.80;48.30;;;;;;5054285;28;20214;-71
2022/03/16 12:17:25;;;;;;;17.23;12.15;;;18.80;48.40;;;;;;5054495;28;20167;-68
2022/03/16 12:20:10;;;;;;;17.20;11.60;;;18.90;48.40;;;;;;5055034;28;20198;-70
2022/03/16 12:22:46;;;;;;;16.60;11.55;;;18.90;48.30;;;;;;5055099;28;20183;-70
2022/03/16 12:25:27;;;;;;;19.52;11.35;;;18.90;48.20;;;;;;5054620;28;20163;-69
2022/03/16 12:30:39;;;;;;;15.63;11.32;;;18.90;48.30;;;;;;5054704;28;20245;-68
2022/03/16 12:33:04;;;;;;;16.83;11.50;;;18.90;48.40;;;;;;5054698;28;20245;-66
2022/03/16 12:35:36;;;;;;;16.38;11.70;;;18.90;48.40;;;;;;5053728;28;20638;-66
2022/03/16 12:38:01;;;;;;;16.20;11.02;;;18.90;48.40;;;;;;5054425;28;20183;-66
2022/03/16 12:40:29;;;;;;;14.13;10.50;;;18.90;48.40;;;;;;5053932;28;20225;-66
2022/03/16 12:42:56;;;;;;;19.73;10.05;;;18.90;48.40;;;;;;5053737;28;20199;-67
2022/03/16 12:45:23;;;;;;;15.57;10.60;;;18.90;48.40;;;;;;5054236;28;20179;-68
2022/03/16 12:47:55;;;;;;;19.08;10.18;;;18.90;48.40;;;;;;5053469;28;20171;-68
2022/03/16 12:50:22;;;;;;;13.30;10.35;;;18.90;48.40;;;;;;5052454;28;20260;-67
2022/03/16 12:52:51;;;;;;;14.23;9.77;;;18.90;48.30;;;;;;5052910;28;20262;-68
2022/03/16 12:55:19;;;;;;;15.20;9.77;;;18.80;48.40;;;;;;5052414;28;20262;-68
2022/03/16 12:57:53;;;;;;;13.15;9.52;;;18.80;48.40;;;;;;5053941;28;20234;-71
2022/03/16 13:00:19;;;;;;;14.40;9.60;;;18.70;48.30;;;;;;5054068;28;20171;-72
2022/03/16 13:02:45;;;;;;;12.20;9.90;;;18.70;48.50;;;;;;5053411;28;20167;-71